Gillam Airport
CYGX : now visible

Airfield :











YOU CAN JOIN US ON...

 
LOGIN :

Register | Disclaimer

   EN    FR    IT 

 









Legend :    VFR   Marginal VFR   IFR   Intensive IFR   Very Intensive IFR
Visi :
Ceiling :
>= 8 km
>= 3000ft
5 to 8 km
1000 to 3000 ft
1500m to 5 km
500 to 1000 ft
800 to 1500m
200 to 500 ft
< 800m
< 200 ft
Symbols :   Thunderstorms  Fog  Heavy snow  Heavy precipitations  Wind > 20 kt







- Airport Elevation : 476 ft
- IATA code : YGX


CYGX - Gillam

CURRENT METAR :
  • 201400Z 35015G22KT 6SM -SHSN BKN015TCU M07/M11 A2966 RMK TCU7 SLP056

EXPIRED METARs :
  • 201358Z CCA 35015G22KT 6SM -SHSN BKN015TCU M07/M11 A2966 RMK TCU7 SLP056
  • 201300Z 35016G22KT 7SM BKN010 M08/M11 A2963 RMK SC7 SLP047
  • 201200Z 34015G22KT 15SM BKN010 M08/M10 A2959 RMK SC7 SLP033

TAF TAF CYGX
Valid from the 20 at 13:00 until the 21 at 01:00 UTC


201242Z 2013/2101 33012G22KT P6SM BKN012 OVC040
TEMPO 2013/2016 SCT015 BKN040
FM201600 35010G20KT P6SM FEW020 BKN040
TEMPO 2016/2101 BKN015 RMK NXT FCST BY 201900Z
CZWG FIR / North America



MET'MAP, your aeronautical weather chart ! - Copyright ORBIFLY December 2007 - Disclaimer

ORBIFLY MET'MAP TEAM :

Programming & Development : Alexandra Zaïnal
Concept & Development : Baudouin d'Aumeries
Co-Development & Prog : Marc-Olivier Méhu
Technical & hardware support : Manuel Goepfert

Contact : metmap@orbifly.com




SOURCES & CREDITS :

   NOAA       Earth
Advisory